Time;durP1;ratioP1;P1;durP2;ratioP2;P2;SDS_P1;SDS_P2;PMS_P1;PMS_P2;Temp;Humidity;BMP_temperature;BMP_pressure;BME280_temperature;BME280_humidity;BME280_pressure;Samples;Min_cycle;Max_cycle;Signal;HPM_P1;HPM_P2
2023/09/02 00:00:21;;;;;;;;;9.25;8.75;;;;;15.36;81.44;99981.50;5094554;28;8838;-57
2023/09/02 00:02:48;;;;;;;;;11.75;10.50;;;;;15.42;80.64;99981.78;5094894;28;8841;-58
2023/09/02 00:05:16;;;;;;;;;4.00;3.25;;;;;15.47;81.20;99978.63;5094157;28;8883;-57
2023/09/02 00:07:44;;;;;;;;;8.00;7.50;;;;;15.47;81.03;99978.63;5094128;28;8821;-57
2023/09/02 00:10:12;;;;;;;;;6.50;6.50;;;;;15.44;81.06;99981.59;5094830;28;8895;-57
2023/09/02 00:12:39;;;;;;;;;5.60;4.80;;;;;15.41;80.95;99984.59;5094297;28;8818;-58
2023/09/02 00:15:07;;;;;;;;;6.40;6.00;;;;;15.37;80.91;99980.50;5094564;28;8830;-59
2023/09/02 00:17:35;;;;;;;;;9.00;6.80;;;;;15.33;81.12;99973.78;5094722;28;8862;-57
2023/09/02 00:20:05;;;;;;;;;9.00;7.50;;;;;15.29;80.82;99977.69;5094051;28;8832;-56
2023/09/02 00:22:32;;;;;;;;;6.80;6.80;;;;;15.24;80.92;99980.03;5094545;28;8810;-57
2023/09/02 00:25:00;;;;;;;;;7.00;7.00;;;;;15.22;81.28;99990.03;5094854;28;8826;-57
2023/09/02 00:27:29;;;;;;;;;9.50;7.50;;;;;15.19;81.47;99987.66;5094746;28;9511;-59
2023/09/02 00:29:57;;;;;;;;;7.00;7.00;;;;;15.16;81.55;99994.16;5094653;28;8818;-56
2023/09/02 00:32:24;;;;;;;;;6.25;6.25;;;;;15.14;81.51;99993.47;5095067;28;8830;-57
2023/09/02 00:34:52;;;;;;;;;6.25;6.00;;;;;15.15;81.92;99994.31;5094986;28;8817;-57
2023/09/02 00:37:20;;;;;;;;;10.75;9.00;;;;;15.13;81.43;99986.44;5094071;28;8830;-56
2023/09/02 00:39:47;;;;;;;;;9.00;7.00;;;;;15.13;81.53;99985.56;5094549;28;8837;-59
2023/09/02 00:42:15;;;;;;;;;7.80;7.40;;;;;15.13;81.81;100001.66;5094594;28;8818;-57
2023/09/02 00:44:42;;;;;;;;;8.50;8.00;;;;;15.12;81.69;99992.78;5094482;28;8830;-57
2023/09/02 00:47:10;;;;;;;;;10.25;9.50;;;;;15.14;81.84;99995.31;5094932;28;8834;-57
2023/09/02 00:49:38;;;;;;;;;10.00;6.00;;;;;15.15;81.60;99995.16;5094132;28;8840;-57
2023/09/02 00:52:05;;;;;;;;;12.25;9.25;;;;;15.16;81.16;99999.53;5093507;28;8865;-57
2023/09/02 00:54:33;;;;;;;;;6.50;6.50;;;;;15.17;81.48;99995.03;5094311;28;9802;-59
2023/09/02 00:57:00;;;;;;;;;10.00;9.75;;;;;15.17;81.10;99995.84;5094974;28;9526;-57
2023/09/02 00:59:28;;;;;;;;;9.00;7.00;;;;;15.19;81.28;99996.56;5094563;28;9481;-57
2023/09/02 01:01:56;;;;;;;;;3.60;3.60;;;;;15.20;81.26;100000.94;5094530;28;8866;-57
2023/09/02 01:04:23;;;;;;;;;9.50;8.50;;;;;15.21;81.35;100001.75;5094387;28;8838;-59
2023/09/02 01:06:51;;;;;;;;;7.50;6.75;;;;;15.22;81.23;100006.13;5094369;28;8830;-57
2023/09/02 01:09:19;;;;;;;;;7.50;6.25;;;;;15.20;81.49;100000.94;5094236;28;8818;-57
2023/09/02 01:11:47;;;;;;;;;10.25;10.00;;;;;15.19;81.59;100001.94;5094633;28;8837;-59
2023/09/02 01:14:14;;;;;;;;;6.75;5.50;;;;;15.19;81.37;100001.94;5094520;28;8818;-57
2023/09/02 01:16:42;;;;;;;;;7.00;6.00;;;;;15.19;81.87;100004.63;5097160;28;8842;-57
2023/09/02 01:19:10;;;;;;;;;6.25;4.50;;;;;15.21;81.55;99999.94;5098915;28;8915;-57
2023/09/02 01:21:37;;;;;;;;;10.40;9.00;;;;;15.22;81.33;100001.63;5098320;28;8860;-57
2023/09/02 01:24:05;;;;;;;;;8.00;7.00;;;;;15.25;81.23;100003.16;5098196;28;8826;-57
2023/09/02 01:26:32;;;;;;;;;6.75;6.75;;;;;15.26;81.39;100000.31;5098034;28;8957;-58
2023/09/02 01:29:00;;;;;;;;;13.00;11.00;;;;;15.29;80.79;100001.84;5098100;28;8833;-57
2023/09/02 01:31:29;;;;;;;;;11.50;9.50;;;;;15.33;81.21;100008.66;5097891;28;8899;-56
2023/09/02 01:33:57;;;;;;;;;6.50;6.25;;;;;15.33;81.22;100014.84;5097759;28;8944;-59
2023/09/02 01:36:24;;;;;;;;;8.00;6.75;;;;;15.33;81.17;100014.03;5097685;28;8845;-58
2023/09/02 01:38:52;;;;;;;;;8.60;8.60;;;;;15.33;81.54;100017.53;5097429;28;8838;-57
2023/09/02 01:41:19;;;;;;;;;9.00;6.50;;;;;15.33;81.35;100014.03;5097285;28;8848;-58
2023/09/02 01:43:46;;;;;;;;;7.00;6.00;;;;;15.33;81.26;100019.38;5097366;28;8834;-59
2023/09/02 01:46:14;;;;;;;;;10.00;9.00;;;;;15.34;81.09;100021.06;5096973;28;8846;-57
2023/09/02 01:48:41;;;;;;;;;9.00;7.80;;;;;15.35;80.66;100029.00;5096575;28;8852;-59
2023/09/02 01:51:09;;;;;;;;;7.20;7.20;;;;;15.37;80.84;100023.44;5096398;28;8849;-58
2023/09/02 01:53:37;;;;;;;;;7.20;6.80;;;;;15.38;80.75;100023.31;5096512;28;8849;-57
2023/09/02 01:56:05;;;;;;;;;12.50;11.00;;;;;15.41;81.16;100023.00;5097101;28;8818;-56
2023/09/02 01:58:33;;;;;;;;;10.40;9.20;;;;;15.44;80.67;100030.75;5097412;28;9472;-58
2023/09/02 02:01:00;;;;;;;;;4.80;2.60;;;;;15.46;80.49;100026.06;5096579;28;8822;-57
2023/09/02 02:03:28;;;;;;;;;14.50;12.00;;;;;15.48;80.73;100020.56;5097670;28;8906;-57
2023/09/02 02:05:56;;;;;;;;;13.25;12.75;;;;;15.50;80.33;100026.63;5097052;28;8841;-59
2023/09/02 02:08:24;;;;;;;;;13.25;11.00;;;;;15.52;80.51;100019.25;5097158;28;8822;-56
2023/09/02 02:10:52;;;;;;;;;12.50;11.50;;;;;15.51;80.29;100021.13;5096416;28;8826;-57
2023/09/02 02:13:19;;;;;;;;;11.75;10.50;;;;;15.51;80.45;100017.56;5096683;28;8818;-57
2023/09/02 02:15:47;;;;;;;;;13.40;11.20;;;;;15.50;80.12;100018.56;5096443;28;8826;-58
2023/09/02 02:18:15;;;;;;;;;12.50;10.50;;;;;15.46;80.90;100025.25;5096880;28;8924;-57
2023/09/02 02:20:42;;;;;;;;;8.50;8.00;;;;;15.41;80.82;100020.31;5096891;28;8802;-59
2023/09/02 02:23:10;;;;;;;;;8.40;6.40;;;;;15.34;80.67;100008.53;5097370;28;8834;-57
2023/09/02 02:25:38;;;;;;;;;5.20;1.80;;;;;15.27;81.44;100014.59;5097391;28;8833;-59
2023/09/02 02:28:06;;;;;;;;;6.00;6.00;;;;;15.21;81.09;100015.19;5096463;28;8834;-60
2023/09/02 02:30:33;;;;;;;;;7.80;6.40;;;;;15.14;81.52;100014.94;5097387;28;8837;-57
2023/09/02 02:33:01;;;;;;;;;8.67;8.67;;;;;15.10;81.26;100018.91;5097031;28;8844;-60
2023/09/02 02:35:29;;;;;;;;;8.75;7.25;;;;;15.04;82.17;100019.53;5097155;28;8829;-58
2023/09/02 02:37:58;;;;;;;;;6.25;5.50;;;;;15.02;81.95;100020.66;5096879;28;8810;-58
2023/09/02 02:40:26;;;;;;;;;5.20;5.20;;;;;15.00;81.68;100017.25;5096690;28;8822;-58
2023/09/02 02:42:53;;;;;;;;;15.25;8.75;;;;;14.97;81.92;100013.06;5097296;28;8822;-60
2023/09/02 02:45:21;;;;;;;;;9.75;9.00;;;;;14.94;82.18;100010.66;5096357;28;8837;-59
2023/09/02 02:47:48;;;;;;;;;10.00;10.00;;;;;14.93;81.85;100016.16;5096684;28;8972;-59
2023/09/02 02:50:16;;;;;;;;;15.50;11.50;;;;;14.90;82.28;100008.41;5096605;28;8806;-57
2023/09/02 02:52:44;;;;;;;;;10.50;9.75;;;;;14.85;81.84;100008.00;5096683;28;9714;-59
2023/09/02 02:55:12;;;;;;;;;12.25;12.00;;;;;14.80;82.57;100011.13;5096160;28;8840;-58
2023/09/02 02:57:39;;;;;;;;;9.25;7.00;;;;;14.76;82.56;100011.56;5097383;28;8838;-57
2023/09/02 03:00:08;;;;;;;;;7.00;7.00;;;;;14.75;82.35;100017.94;5096856;28;8852;-58
2023/09/02 03:02:36;;;;;;;;;8.75;7.00;;;;;14.71;82.46;100017.38;5096065;28;8834;-58
2023/09/02 03:05:04;;;;;;;;;11.00;8.50;;;;;14.72;81.97;100035.16;5096504;28;8838;-57
2023/09/02 03:07:31;;;;;;;;;7.00;7.00;;;;;14.73;81.88;100022.59;5096345;28;8834;-58
2023/09/02 03:09:59;;;;;;;;;7.50;7.50;;;;;14.75;82.20;100034.00;5095615;28;8964;-59
2023/09/02 03:12:27;;;;;;;;;11.00;10.25;;;;;14.78;82.09;100031.88;5096837;28;8810;-58
2023/09/02 03:14:54;;;;;;;;;10.00;10.00;;;;;14.82;81.95;100032.44;5095925;28;8814;-57
2023/09/02 03:17:22;;;;;;;;;7.80;7.40;;;;;14.87;82.13;100039.03;5096152;28;8849;-59
2023/09/02 03:19:50;;;;;;;;;10.00;9.25;;;;;14.92;82.10;100036.78;5095685;28;8956;-58
2023/09/02 03:22:18;;;;;;;;;10.00;9.75;;;;;14.96;81.55;100031.97;5095644;28;8815;-56
2023/09/02 03:24:47;;;;;;;;;12.75;9.75;;;;;15.01;81.72;100032.38;5095910;28;8822;-59
2023/09/02 03:27:14;;;;;;;;;23.50;18.75;;;;;15.04;81.38;100032.94;5096076;28;8826;-58
2023/09/02 03:29:42;;;;;;;;;25.25;22.50;;;;;15.09;80.92;100036.00;5095585;28;8818;-57
2023/09/02 03:32:09;;;;;;;;;20.00;19.00;;;;;15.12;81.50;100033.03;5095800;28;8873;-59
2023/09/02 03:34:37;;;;;;;;;18.75;18.50;;;;;15.16;81.69;100028.22;5095674;28;8830;-59
2023/09/02 03:37:03;;;;;;;;;22.50;21.00;;;;;15.21;80.79;100037.50;5095534;28;8818;-59
2023/09/02 03:39:33;;;;;;;;;24.00;20.00;;;;;15.26;80.90;100029.81;5094751;28;8837;-59
2023/09/02 03:42:01;;;;;;;;;25.00;24.50;;;;;15.29;80.66;100029.53;5095532;28;8822;-60
2023/09/02 03:44:28;;;;;;;;;17.00;15.00;;;;;15.33;80.91;100032.81;5095300;28;8822;-58
2023/09/02 03:46:56;;;;;;;;;29.00;26.25;;;;;15.33;81.02;100030.94;5095601;28;8834;-59
2023/09/02 03:49:23;;;;;;;;;29.00;23.75;;;;;15.32;80.97;100031.13;5095785;28;9587;-57
2023/09/02 03:51:51;;;;;;;;;27.25;23.00;;;;;15.30;80.82;100033.06;5095808;28;8814;-58
2023/09/02 03:54:19;;;;;;;;;22.50;20.00;;;;;15.30;81.33;100030.38;5095047;28;8814;-59
2023/09/02 03:56:46;;;;;;;;;33.25;29.50;;;;;15.30;80.80;100027.69;5095623;28;8841;-57
2023/09/02 03:59:14;;;;;;;;;36.25;28.00;;;;;15.28;80.68;100022.50;5095100;28;8845;-59
2023/09/02 04:01:41;;;;;;;;;30.50;25.00;;;;;15.29;81.11;100034.91;5095191;28;8833;-59
2023/09/02 04:04:09;;;;;;;;;31.25;22.25;;;;;15.30;81.10;100030.38;5094874;28;8857;-58
2023/09/02 04:06:37;;;;;;;;;27.00;23.25;;;;;15.29;80.85;100029.53;5095600;28;8956;-60
2023/09/02 04:09:07;;;;;;;;;34.00;30.50;;;;;15.31;81.04;100030.25;5094621;28;8806;-56
2023/09/02 04:11:35;;;;;;;;;27.75;26.25;;;;;15.28;80.81;100022.50;5095301;28;9495;-59
2023/09/02 04:14:02;;;;;;;;;31.50;28.50;;;;;15.27;81.05;100019.94;5094748;28;8826;-58
2023/09/02 04:16:30;;;;;;;;;32.50;28.00;;;;;15.27;81.36;100026.19;5094811;28;8854;-57
2023/09/02 04:19:02;;;;;;;;;28.75;25.50;;;;;15.27;81.05;100025.31;5094398;28;8936;-57
2023/09/02 04:21:30;;;;;;;;;36.00;27.75;;;;;15.28;80.92;100027.00;5095164;28;8843;-56
2023/09/02 04:23:58;;;;;;;;;20.50;18.50;;;;;15.29;81.04;100029.53;5094931;28;8834;-59
2023/09/02 04:26:25;;;;;;;;;38.25;29.75;;;;;15.29;81.33;100034.91;5094890;28;9510;-58
2023/09/02 04:28:55;;;;;;;;;30.50;24.00;;;;;15.32;80.74;100037.31;5095264;28;8829;-56
2023/09/02 04:31:23;;;;;;;;;30.50;26.25;;;;;15.33;81.19;100035.50;5094991;28;8868;-56
2023/09/02 04:33:51;;;;;;;;;36.00;33.50;;;;;15.32;81.19;100029.28;5094874;28;8854;-57
2023/09/02 04:36:18;;;;;;;;;28.50;25.50;;;;;15.32;80.76;100036.50;5094372;28;9472;-56
2023/09/02 04:38:46;;;;;;;;;30.00;27.50;;;;;15.33;81.11;100040.84;5094798;28;8847;-58
2023/09/02 04:41:15;;;;;;;;;26.25;22.00;;;;;15.35;81.25;100041.53;5093647;28;8952;-59
2023/09/02 04:43:43;;;;;;;;;31.75;29.00;;;;;15.35;80.94;100049.59;5093702;28;8849;-57
2023/09/02 04:46:11;;;;;;;;;25.00;22.50;;;;;15.37;81.34;100047.59;5093816;28;8867;-57
2023/09/02 04:48:41;;;;;;;;;26.00;22.75;;;;;15.38;81.05;100050.16;5094276;28;8899;-59
2023/09/02 04:51:10;;;;;;;;;19.50;17.00;;;;;15.40;81.33;100052.69;5095660;28;8822;-57
2023/09/02 04:53:37;;;;;;;;;25.00;24.00;;;;;15.41;80.42;100054.38;5098306;28;8810;-57
2023/09/02 04:56:05;;;;;;;;;29.00;26.25;;;;;15.43;80.96;100063.09;5098761;28;8922;-57
2023/09/02 04:58:32;;;;;;;;;23.00;18.75;;;;;15.44;81.08;100059.44;5098755;28;8818;-57
2023/09/02 05:01:00;;;;;;;;;30.50;27.00;;;;;15.46;80.72;100057.47;5098130;28;8872;-57
2023/09/02 05:03:28;;;;;;;;;20.00;18.50;;;;;15.47;80.86;100053.78;5098173;28;8829;-59
2023/09/02 05:05:56;;;;;;;;;18.75;18.25;;;;;15.48;81.05;100055.47;5098760;28;8852;-58
2023/09/02 05:08:24;;;;;;;;;21.00;17.00;;;;;15.50;80.92;100064.19;5098294;28;8845;-57
2023/09/02 05:10:51;;;;;;;;;19.75;16.00;;;;;15.54;80.77;100060.25;5098105;28;8873;-59
2023/09/02 05:13:19;;;;;;;;;9.75;9.75;;;;;15.57;80.90;100065.28;5098317;28;8826;-59
2023/09/02 05:15:47;;;;;;;;;18.00;15.50;;;;;15.60;80.30;100070.34;5098162;28;8842;-59
2023/09/02 05:18:15;;;;;;;;;18.00;16.00;;;;;15.64;79.97;100077.13;5098287;28;8842;-57
2023/09/02 05:20:42;;;;;;;;;20.25;19.75;;;;;15.67;80.54;100076.81;5098874;28;8870;-57
2023/09/02 05:23:13;;;;;;;;;20.00;18.50;;;;;15.71;80.56;100078.22;5098238;28;8864;-59
2023/09/02 05:25:40;;;;;;;;;19.50;16.00;;;;;15.74;80.44;100070.69;5097909;28;8829;-59
2023/09/02 05:28:08;;;;;;;;;15.20;13.20;;;;;15.78;80.06;100073.94;5098247;28;8830;-57
2023/09/02 05:30:36;;;;;;;;;9.00;7.40;;;;;15.83;79.94;100076.97;5097828;28;8830;-58
2023/09/02 05:33:03;;;;;;;;;21.00;18.50;;;;;15.88;80.37;100074.69;5097693;28;8849;-59
2023/09/02 05:35:31;;;;;;;;;15.25;15.00;;;;;15.92;79.79;100076.09;5097940;28;8825;-57
2023/09/02 05:37:59;;;;;;;;;17.00;15.50;;;;;15.96;79.61;100077.47;5097977;28;9522;-57
2023/09/02 05:40:26;;;;;;;;;15.20;13.00;;;;;16.01;79.73;100080.53;5097394;28;8825;-56
2023/09/02 05:42:54;;;;;;;;;19.75;15.00;;;;;16.00;79.64;100085.06;5096843;28;8830;-59
2023/09/02 05:45:22;;;;;;;;;17.00;15.25;;;;;16.01;80.33;100086.75;5097161;28;8834;-57
2023/09/02 05:47:50;;;;;;;;;18.75;15.75;;;;;16.04;79.89;100085.59;5097472;28;8948;-58
2023/09/02 05:50:17;;;;;;;;;15.40;13.40;;;;;16.05;79.82;100085.47;5097048;28;8909;-59
2023/09/02 05:52:45;;;;;;;;;22.20;21.60;;;;;16.06;80.13;100087.13;5096970;28;8822;-59
2023/09/02 05:55:13;;;;;;;;;14.60;13.00;;;;;16.08;79.87;100082.44;5096196;28;8833;-58
2023/09/02 05:57:41;;;;;;;;;13.40;12.80;;;;;16.14;79.64;100091.75;5096261;28;9502;-58
2023/09/02 06:00:09;;;;;;;;;14.20;13.00;;;;;16.18;79.79;100088.63;5096361;28;9488;-58
2023/09/02 06:02:37;;;;;;;;;12.20;11.60;;;;;16.24;79.34;100091.50;5095114;28;8853;-57
2023/09/02 06:05:05;;;;;;;;;10.00;9.60;;;;;16.31;79.03;100087.22;5095389;28;8842;-56
2023/09/02 06:07:32;;;;;;;;;15.00;14.20;;;;;16.40;79.26;100091.69;5095765;28;8822;-57
2023/09/02 06:10:00;;;;;;;;;13.00;12.40;;;;;16.49;79.29;100098.81;5096201;28;8972;-59
2023/09/02 06:12:33;;;;;;;;;20.60;14.60;;;;;16.58;79.21;100095.22;5096508;28;8826;-56
2023/09/02 06:15:02;;;;;;;;;15.20;13.60;;;;;16.67;79.04;100090.72;5096462;28;8844;-57
2023/09/02 06:17:31;;;;;;;;;16.20;14.80;;;;;16.73;78.92;100096.34;5097053;28;8846;-58
2023/09/02 06:19:59;;;;;;;;;17.60;15.40;;;;;16.79;78.66;100101.06;5097061;28;8864;-59
2023/09/02 06:22:27;;;;;;;;;10.20;9.80;;;;;16.84;78.70;100098.75;5096296;28;8850;-59
2023/09/02 06:24:55;;;;;;;;;12.00;10.00;;;;;16.87;78.77;100094.91;5095446;28;8846;-58
2023/09/02 06:27:23;;;;;;;;;10.00;7.00;;;;;16.90;78.44;100103.50;5095659;28;8860;-59
2023/09/02 06:29:50;;;;;;;;;9.60;7.00;;;;;16.97;78.17;100109.94;5095423;28;8826;-58
2023/09/02 06:32:18;;;;;;;;;10.80;10.00;;;;;17.03;78.07;100108.47;5095602;28;8852;-57
2023/09/02 06:34:46;;;;;;;;;12.60;12.20;;;;;17.09;78.33;100108.66;5095331;28;8971;-57
2023/09/02 06:37:14;;;;;;;;;15.40;11.20;;;;;17.16;78.30;100114.28;5095594;28;8842;-59
2023/09/02 06:39:44;;;;;;;;;12.60;11.20;;;;;17.24;77.79;100115.13;5095825;28;8830;-59
2023/09/02 06:42:14;;;;;;;;;12.40;10.00;;;;;17.32;78.15;100115.19;5095431;28;8833;-56
2023/09/02 06:44:46;;;;;;;;;11.00;10.20;;;;;17.43;77.56;100120.34;5095227;28;8868;-57
2023/09/02 06:47:15;;;;;;;;;14.80;12.60;;;;;17.54;77.19;100111.97;5095068;28;8842;-58
2023/09/02 06:49:43;;;;;;;;;12.00;11.20;;;;;17.64;77.48;100115.38;5094742;28;8931;-59
2023/09/02 06:52:12;;;;;;;;;10.60;10.40;;;;;17.72;76.94;100119.94;5094481;28;8853;-58
2023/09/02 06:54:40;;;;;;;;;8.20;6.00;;;;;17.80;76.81;100109.19;5095218;28;8858;-56
2023/09/02 06:57:07;;;;;;;;;15.80;12.40;;;;;17.89;76.74;100119.84;5093435;28;8843;-58
2023/09/02 06:59:35;;;;;;;;;12.80;12.20;;;;;17.99;76.80;100125.91;5094937;28;8863;-59
2023/09/02 07:02:03;;;;;;;;;9.40;9.00;;;;;18.10;76.10;100127.47;5094666;28;8838;-57
2023/09/02 07:04:32;;;;;;;;;19.80;16.80;;;;;18.20;76.08;100118.22;5095512;28;8856;-59
2023/09/02 07:07:01;;;;;;;;;22.00;21.80;;;;;18.30;76.18;100124.31;5095304;28;8830;-58
2023/09/02 07:09:29;;;;;;;;;20.60;18.40;;;;;18.38;75.97;100124.34;5095389;28;8845;-59
2023/09/02 07:11:58;;;;;;;;;17.60;16.60;;;;;18.48;76.35;100122.34;5095451;28;8842;-59
2023/09/02 07:14:26;;;;;;;;;18.00;15.80;;;;;18.54;75.54;100128.91;5095400;28;8868;-58
2023/09/02 07:16:54;;;;;;;;;20.20;15.60;;;;;18.59;75.96;100127.38;5094090;28;8854;-57
2023/09/02 07:19:23;;;;;;;;;17.60;13.20;;;;;18.65;75.87;100129.41;5095059;28;8864;-59
2023/09/02 07:21:51;;;;;;;;;16.40;12.60;;;;;18.72;75.65;100143.06;5093618;28;8913;-59
2023/09/02 07:24:19;;;;;;;;;12.20;12.00;;;;;18.79;75.32;100144.94;5094487;28;8875;-59
2023/09/02 07:26:47;;;;;;;;;12.60;10.60;;;;;18.89;75.54;100148.31;5094572;28;8826;-59
2023/09/02 07:29:16;;;;;;;;;11.20;10.00;;;;;18.96;75.55;100165.50;5093936;28;8826;-60
2023/09/02 07:31:44;;;;;;;;;10.80;8.80;;;;;19.03;75.32;100161.13;5094627;28;9523;-59
2023/09/02 07:34:18;;;;;;;;;12.20;9.80;;;;;19.09;75.03;100165.84;5094429;28;8844;-59
2023/09/02 07:36:47;;;;;;;;;11.60;11.20;;;;;19.15;74.65;100173.25;5094461;28;8846;-59
2023/09/02 07:39:16;;;;;;;;;16.00;15.00;;;;;19.22;74.86;100182.41;5094490;28;8840;-57
2023/09/02 07:41:44;;;;;;;;;11.80;8.80;;;;;19.27;75.19;100179.19;5092920;28;8830;-59
2023/09/02 07:44:12;;;;;;;;;10.60;10.60;;;;;19.32;74.94;100177.66;5092211;28;8838;-59
2023/09/02 07:46:39;;;;;;;;;12.20;11.20;;;;;19.36;74.73;100181.66;5093151;28;8912;-59
2023/09/02 07:49:07;;;;;;;;;12.40;12.40;;;;;19.41;74.89;100183.88;5093579;28;8838;-57
2023/09/02 07:51:35;;;;;;;;;12.20;10.20;;;;;19.46;75.09;100185.06;5093716;28;8865;-58
2023/09/02 07:54:04;;;;;;;;;11.80;10.00;;;;;19.49;75.17;100191.97;5093235;28;8826;-58
2023/09/02 07:56:32;;;;;;;;;8.40;6.80;;;;;19.54;74.99;100205.78;5093885;28;8923;-59
2023/09/02 07:58:59;;;;;;;;;12.80;10.60;;;;;19.59;75.03;100208.81;5093436;28;8837;-60
2023/09/02 08:01:29;;;;;;;;;9.60;9.20;;;;;19.65;74.82;100217.06;5092714;28;8837;-58
2023/09/02 08:03:57;;;;;;;;;9.40;9.20;;;;;19.71;74.63;100220.97;5092481;28;8838;-57
2023/09/02 08:06:25;;;;;;;;;8.40;6.40;;;;;19.78;74.07;100217.38;5092654;28;8838;-58
2023/09/02 08:08:52;;;;;;;;;7.00;4.00;;;;;19.83;74.12;100215.00;5092112;28;8826;-58
2023/09/02 08:11:21;;;;;;;;;5.40;5.20;;;;;19.90;74.28;100220.56;5091713;28;8845;-59
2023/09/02 08:13:49;;;;;;;;;5.00;5.00;;;;;19.96;74.25;100222.56;5091228;28;8830;-58
2023/09/02 08:16:17;;;;;;;;;4.80;4.80;;;;;20.04;74.65;100225.22;5092144;28;8854;-60
2023/09/02 08:18:44;;;;;;;;;3.20;3.20;;;;;20.12;73.92;100231.50;5092519;28;8910;-58
2023/09/02 08:21:12;;;;;;;;;4.60;4.00;;;;;20.18;73.80;100246.19;5092842;28;8833;-60
2023/09/02 08:23:40;;;;;;;;;2.20;1.80;;;;;20.23;74.11;100250.03;5091850;28;8860;-60
2023/09/02 08:26:08;;;;;;;;;3.60;3.60;;;;;20.30;73.94;100242.91;5092571;28;8841;-57
2023/09/02 08:28:36;;;;;;;;;5.00;5.00;;;;;20.38;73.94;100248.25;5092444;28;8856;-57
2023/09/02 08:31:04;;;;;;;;;7.40;7.40;;;;;20.45;73.45;100254.66;5092870;28;8919;-60
2023/09/02 08:33:32;;;;;;;;;4.20;4.20;;;;;20.51;73.36;100255.81;5093115;28;8818;-59
2023/09/02 08:36:00;;;;;;;;;1.00;1.00;;;;;20.59;73.04;100261.16;5093447;28;8863;-58
2023/09/02 08:38:27;;;;;;;;;3.20;3.20;;;;;20.70;72.99;100253.50;5093028;28;8935;-60
2023/09/02 08:40:57;;;;;;;;;5.00;5.00;;;;;20.83;72.93;100254.59;5092777;28;8856;-59
2023/09/02 08:43:25;;;;;;;;;4.60;3.60;;;;;20.97;72.52;100255.72;5092367;28;8818;-58
2023/09/02 08:45:52;;;;;;;;;5.80;5.40;;;;;21.10;72.26;100255.97;5092346;28;8885;-60
2023/09/02 08:48:20;;;;;;;;;4.20;4.00;;;;;21.21;72.25;100258.22;5092341;28;8832;-58
2023/09/02 08:50:52;;;;;;;;;6.60;5.40;;;;;21.26;72.26;100263.94;5092282;28;8906;-57
2023/09/02 08:53:20;;;;;;;;;7.00;6.20;;;;;21.29;72.25;100255.44;5091887;28;8846;-59
2023/09/02 08:55:48;;;;;;;;;5.40;4.60;;;;;21.36;72.20;100259.13;5092010;28;8814;-58
2023/09/02 08:58:16;;;;;;;;;7.20;6.60;;;;;21.43;71.97;100262.78;5092800;28;8822;-60
2023/09/02 09:00:43;;;;;;;;;8.00;6.00;;;;;21.49;71.89;100254.75;5092023;28;8844;-58
2023/09/02 09:03:12;;;;;;;;;4.80;4.40;;;;;21.54;71.77;100256.91;5091467;28;8822;-60
2023/09/02 09:05:40;;;;;;;;;5.00;5.00;;;;;21.61;71.65;100255.13;5091991;28;9635;-60
2023/09/02 09:08:07;;;;;;;;;3.20;3.20;;;;;21.71;71.88;100258.47;5092383;28;8844;-58
2023/09/02 09:10:35;;;;;;;;;5.00;2.40;;;;;21.84;71.87;100251.38;5092379;28;8960;-58
2023/09/02 09:13:03;;;;;;;;;5.00;2.00;;;;;21.97;71.44;100250.72;5092270;28;8916;-59
2023/09/02 09:15:31;;;;;;;;;4.00;4.00;;;;;22.08;71.02;100255.69;5091600;28;8899;-59
2023/09/02 09:17:59;;;;;;;;;5.00;4.20;;;;;22.15;71.04;100264.75;5092335;28;8857;-60
2023/09/02 09:20:27;;;;;;;;;4.00;3.60;;;;;22.20;70.83;100262.31;5092903;28;8890;-59
2023/09/02 09:22:54;;;;;;;;;3.60;2.40;;;;;22.25;70.77;100263.41;5092276;28;8825;-59
2023/09/02 09:25:22;;;;;;;;;2.40;2.40;;;;;22.34;70.58;100269.59;5092871;28;8826;-59
2023/09/02 09:27:50;;;;;;;;;4.40;4.00;;;;;22.45;70.98;100258.28;5092261;28;8834;-60
2023/09/02 09:30:18;;;;;;;;;4.00;4.00;;;;;22.54;70.56;100265.31;5092741;28;8904;-59
2023/09/02 09:32:46;;;;;;;;;4.60;4.60;;;;;22.60;70.23;100262.66;5092184;28;8895;-61
2023/09/02 09:35:13;;;;;;;;;4.40;4.00;;;;;22.70;70.33;100259.66;5092221;28;8829;-60
2023/09/02 09:37:41;;;;;;;;;5.80;5.80;;;;;22.80;70.02;100268.31;5095152;28;8842;-58
2023/09/02 09:40:09;;;;;;;;;4.00;4.00;;;;;22.84;70.15;100264.19;5095386;28;8846;-60
2023/09/02 09:42:37;;;;;;;;;4.60;4.60;;;;;22.92;69.80;100264.06;5095572;28;8837;-59
2023/09/02 09:45:05;;;;;;;;;2.40;2.00;;;;;23.04;70.00;100267.94;5096118;28;8833;-59
2023/09/02 09:47:33;;;;;;;;;5.00;4.00;;;;;23.14;69.58;100263.03;5095872;28;8838;-58
2023/09/02 09:50:01;;;;;;;;;4.00;2.40;;;;;23.22;69.99;100260.22;5095171;28;8972;-60
2023/09/02 09:52:29;;;;;;;;;4.00;3.60;;;;;23.32;69.54;100266.16;5094589;28;8841;-60
2023/09/02 09:54:57;;;;;;;;;5.60;5.00;;;;;23.50;69.06;100263.78;5094427;28;8818;-58
2023/09/02 09:57:24;;;;;;;;;4.60;4.00;;;;;23.70;68.78;100265.66;5094705;28;8830;-61
2023/09/02 09:59:52;;;;;;;;;2.00;2.00;;;;;23.92;68.10;100258.28;5094913;28;8846;-60
2023/09/02 10:02:20;;;;;;;;;4.80;4.80;;;;;24.11;67.59;100263.84;5095058;28;8849;-60
2023/09/02 10:04:49;;;;;;;;;1.00;1.00;;;;;24.35;67.29;100260.63;5094549;28;8845;-57
2023/09/02 10:07:19;;;;;;;;;4.00;4.00;;;;;24.59;67.43;100267.47;5094719;28;8830;-59
2023/09/02 10:09:47;;;;;;;;;2.00;2.00;;;;;24.85;66.84;100264.81;5094116;28;8918;-58
2023/09/02 10:12:15;;;;;;;;;0.00;0.00;;;;;25.16;66.41;100270.56;5093218;28;9611;-60
2023/09/02 10:14:43;;;;;;;;;2.00;2.00;;;;;25.60;65.08;100275.22;5093717;28;8841;-61
2023/09/02 10:17:12;;;;;;;;;3.00;2.80;;;;;26.01;64.71;100273.13;5093571;28;8846;-58
2023/09/02 10:19:40;;;;;;;;;3.00;3.00;;;;;26.47;63.86;100273.00;5093866;28;8849;-60
2023/09/02 10:22:08;;;;;;;;;2.60;2.00;;;;;26.91;62.82;100276.63;5094168;28;8868;-60
2023/09/02 10:24:36;;;;;;;;;2.00;2.00;;;;;27.47;62.19;100272.03;5094236;28;8846;-58
2023/09/02 10:27:05;;;;;;;;;2.20;2.00;;;;;28.03;60.59;100261.91;5093962;28;8852;-59
2023/09/02 10:29:34;;;;;;;;;1.00;1.00;;;;;28.39;60.46;100270.16;5094064;28;8976;-60
2023/09/02 10:32:03;;;;;;;;;2.00;2.00;;;;;28.48;60.33;100271.53;5094554;28;8854;-60
2023/09/02 10:34:31;;;;;;;;;1.40;1.40;;;;;28.54;60.52;100272.50;5093998;28;8871;-59
2023/09/02 10:36:58;;;;;;;;;1.80;1.80;;;;;28.35;61.23;100265.34;5093737;28;8950;-61
2023/09/02 10:39:26;;;;;;;;;2.20;2.20;;;;;28.02;62.30;100264.84;5093436;28;8830;-59
2023/09/02 10:41:54;;;;;;;;;2.00;2.00;;;;;27.88;62.33;100280.59;5093830;28;8829;-60
2023/09/02 10:44:22;;;;;;;;;2.00;1.80;;;;;27.62;63.37;100280.78;5093138;28;8856;-59
2023/09/02 10:46:50;;;;;;;;;1.40;1.00;;;;;27.36;63.72;100285.59;5094258;28;8866;-59
2023/09/02 10:49:21;;;;;;;;;1.20;1.20;;;;;27.27;64.09;100290.53;5093882;28;8919;-58
2023/09/02 10:51:49;;;;;;;;;2.00;2.00;;;;;27.20;64.42;100292.47;5094201;28;8846;-58
2023/09/02 10:54:19;;;;;;;;;1.00;1.00;;;;;27.04;64.56;100290.22;5094777;28;8846;-60
2023/09/02 10:56:47;;;;;;;;;2.60;2.20;;;;;26.97;64.77;100291.31;5094055;28;9511;-60
2023/09/02 10:59:15;;;;;;;;;2.00;2.00;;;;;27.02;64.78;100289.59;5093795;28;8887;-59
2023/09/02 11:01:43;;;;;;;;;2.20;2.00;;;;;27.21;64.22;100288.66;5092879;28;8984;-60
2023/09/02 11:04:11;;;;;;;;;1.00;1.00;;;;;27.40;63.44;100287.69;5093250;28;9499;-59
2023/09/02 11:06:39;;;;;;;;;1.80;1.60;;;;;27.58;63.29;100286.91;5093490;28;8964;-61
2023/09/02 11:09:07;;;;;;;;;2.00;1.00;;;;;27.64;63.30;100286.88;5094333;28;8832;-59
2023/09/02 11:11:34;;;;;;;;;1.40;1.40;;;;;27.63;63.29;100292.56;5092962;28;8826;-61
2023/09/02 11:14:01;;;;;;;;;0.40;0.20;;;;;27.57;63.70;100283.34;5092452;28;8876;-60
2023/09/02 11:16:29;;;;;;;;;1.00;1.00;;;;;27.23;64.60;100289.28;5092522;28;8838;-59
2023/09/02 11:18:57;;;;;;;;;2.00;2.00;;;;;27.23;64.04;100291.19;5092617;28;8842;-61
2023/09/02 11:21:25;;;;;;;;;2.00;2.00;;;;;27.35;63.78;100292.16;5092337;28;8856;-58
2023/09/02 11:23:52;;;;;;;;;2.00;2.00;;;;;27.73;63.47;100288.28;5092298;28;8850;-59
2023/09/02 11:26:20;;;;;;;;;2.00;2.00;;;;;28.26;62.08;100280.38;5091909;28;8841;-59
2023/09/02 11:28:48;;;;;;;;;2.00;2.00;;;;;28.58;61.22;100288.25;5091862;28;8833;-60